Station: Proserpine Airport  

  Atmospheric Gas Attenuation - ITU Rec 676-11   ----------------- dB/100km -----------------
Date Time Temp RH % AH g/m3 Dew Point Wind Direction Speed kph Gust kph Barometer mB Rainfall Since 9am 24GHz 47GHz 76GHz 122GHz 134GHz 241GHz
08/05 12:40 24.9 49 11.22 13.5 19 22 1016.6 0 24.5 26.9 44.3 116.6 117.0 404.8
08/05 12:30 25 52 11.97 14.5 17 28 1016.9 0 26.1 28.0 47.1 124.1 126.3 437.3
08/05 12:20 24.1 50 10.94 13 20 22 1017 0 24.0 26.7 43.7 115.0 114.7 396.8
08/05 12:10 24.8 49 11.15 13.4 19 24 1017.1 0 24.4 26.8 44.1 116.1 116.3 402.4
08/05 12:00 24.5 51 11.41 13.7 17 24 1017.4 0 25.0 27.3 45.3 119.2 120.0 415.4
08/05 11:50 23.6 52 11.06 13.2 17 20 1017.5 0 24.3 27.0 44.5 117.0 117.0 404.7
08/05 11:40 23.7 52 11.12 13.3 17 24 1017.6 0 24.4 27.1 44.6 117.5 117.6 406.9
08/05 11:30 23.6 51 10.85 12.9 19 28 1017.8 0 23.8 26.7 43.7 114.9 114.4 395.6
08/05 11:20 23.7 49 10.48 12.4 19 24 1017.9 0 23.0 26.1 42.2 111.0 109.6 379.0
08/05 11:10 24.4 48 10.68 12.7 20 26 1017.9 0 23.4 26.2 42.6 112.0 111.1 384.3
08/05 11:00 24.5 46 10.29 12.1 28 39 1018 0 22.6 25.6 41.1 108.0 106.2 367.2
08/05 10:50 24.3 47 10.4 12.3 22 28 1018.1 0 22.8 25.9 41.6 109.4 107.8 372.8
08/05 10:40 23.5 49 10.36 12.2 26 30 1018.3 0 22.8 26.0 41.9 110.1 108.5 374.9
08/05 10:30 23.5 49 10.36 12.2 26 33 1018.3 0 22.8 26.0 41.9 110.1 108.5 374.9
08/05 10:20 23.1 50 10.34 12.1 20 22 1018.4 0 22.8 26.1 42.0 110.5 108.8 375.9
08/05 10:10 23.4 49 10.3 12.1 22 24 1018.3 0 22.7 26.0 41.7 109.7 107.9 372.8
08/05 10:00 24.2 49 10.78 12.8 24 33 1018.3 0 23.6 26.5 43.1 113.4 112.7 389.7
08/05 09:50 23.9 52 11.25 13.7 20 24 1018.2 0 24.7 27.3 45.1 118.6 119.0 411.7
08/05 09:40 22.8 55 11.18 13.3 19 22 1018.4 0 24.6 27.5 45.4 119.5 119.8 414.4
08/05 09:30 22.9 59 12.06 14.5 13 20 1018.3 0 26.4 28.9 48.8 128.6 131.0 453.7
08/05 09:20 22.8 58 11.78 14.1 13 15 1018.1 0 25.8 28.5 47.8 125.8 127.5 441.4
08/05 09:10 23 57 11.71 14 11 13 1018.1 0 25.7 28.3 47.4 124.7 126.3 437.1
08/05 09:00 22.4 60 11.91 14.3 13 17 1018.2 0 26.1 28.8 48.5 127.8 129.9 449.6
08/05 08:50 22.1 64 12.49 15 11 13 1017.9 0 27.4 29.8 51.1 134.5 138.1 478.3
08/05 08:40 21.5 62 11.69 13.9 11 13 1017.9 0 25.7 28.7 48.2 126.9 128.4 444.5
08/05 08:30 21.7 67 12.78 15.3 6 13 1017.9 0 28.0 30.5 52.5 138.4 142.7 494.5
08/05 08:20 20.7 77 13.86 16.5 0 0 1017.8 0 30.4 32.7 57.8 152.6 159.8 553.9
08/05 08:10 20.3 75 13.19 15.7 0 0 1017.7 0 29.0 31.6 55.2 145.6 151.1 523.4
08/05 08:00 20.2 79 13.81 16.4 0 0 1017.7 0 30.3 32.8 58.0 152.9 160.1 554.9
08/05 07:50 19.4 79 13.18 15.7 0 0 1017.6 0 29.0 32.0 55.8 147.1 152.7 529.0
08/05 07:40 18.9 80 12.96 15.4 0 0 1017.5 0 28.6 31.7 55.2 145.5 150.6 521.5
08/05 07:30 18.5 88 13.92 16.5 0 4 1017.3 0 30.7 33.6 59.7 157.6 165.3 572.9
08/05 07:20 18.1 90 13.9 16.4 4 6 1017.3 0 30.7 33.7 60.0 158.2 165.9 574.9
08/05 07:10 17.5 89 13.27 15.7 0 0 1017 0 29.4 32.8 57.6 151.8 157.9 546.7
08/05 07:00 17.4 88 13.04 15.4 2 6 1017.1 0 28.9 32.4 56.6 149.3 154.7 535.7
08/05 06:50 17.5 84 12.52 14.8 0 0 1016.9 0 27.8 31.5 54.2 142.9 147.0 508.6
08/05 06:40 17.5 83 12.37 14.6 4 6 1016.7 0 27.4 31.2 53.6 141.2 144.8 501.0
08/05 06:30 17.4 86 12.74 15 7 9 1016.4 0 28.2 31.9 55.2 145.6 150.3 520.2
08/05 06:20 17.7 84 12.67 15 9 11 1016.2 0 28.1 31.6 54.7 144.2 148.6 514.5
08/05 06:10 17.7 87 13.13 15.5 11 11 1016 0 29.1 32.4 56.7 149.6 155.3 537.7
08/05 06:00 17.9 87 13.28 15.7 11 13 1016.1 0 29.4 32.6 57.3 151.0 157.1 544.0
08/05 05:50 18.4 86 13.53 16 11 13 1015.9 0 29.9 32.9 58.0 153.0 159.7 553.0
08/05 05:40 18.6 87 13.85 16.4 11 13 1015.8 0 30.5 33.4 59.3 156.4 163.9 567.9
08/05 05:30 18.7 88 14.09 16.7 11 13 1015.9 0 31.0 33.8 60.3 159.1 167.2 579.5
08/05 05:20 18.9 89 14.42 17 9 9 1015.6 0 31.7 34.3 61.6 162.6 171.7 595.0
08/05 05:10 19.2 88 14.51 17.2 11 11 1015.5 0 31.9 34.3 61.8 163.0 172.3 597.2
08/05 05:00 19.4 89 14.85 17.5 11 13 1015.6 0 32.6 34.9 63.2 166.8 176.9 613.4
08/05 04:50 19.6 89 15.02 17.7 11 13 1015.3 0 33.0 35.1 63.8 168.3 179.0 620.5
08/05 04:40 19.6 90 15.19 17.9 15 17 1015.1 0 33.3 35.4 64.5 170.4 181.5 629.3
08/05 04:30 19.5 92 15.44 18.2 11 15 1015.2 0 33.9 35.9 65.8 173.7 185.5 643.4
08/05 04:20 19.3 94 15.59 18.3 11 11 1015.1 0 34.2 36.3 66.6 176.0 188.3 653.0
08/05 04:10 19.1 95 15.57 18.3 11 11 1015.1 0 34.2 36.3 66.7 176.2 188.5 653.7
08/05 04:00 18.9 95 15.39 18.1 9 11 1015 0 33.8 36.1 66.1 174.4 186.2 645.8
08/05 03:50 18.9 95 15.39 18.1 9 9 1015 0 33.8 36.1 66.1 174.4 186.2 645.8
08/05 03:40 19.1 95 15.57 18.3 9 9 1015.1 0 34.2 36.3 66.7 176.2 188.5 653.7
08/05 03:30 19.2 95 15.66 18.4 6 9 1015.1 0 34.4 36.4 67.1 177.1 189.6 657.7
08/05 03:20 19.3 95 15.76 18.5 0 0 1015 0 34.6 36.6 67.4 178.1 190.9 662.1
08/05 03:10 19.3 96 15.92 18.6 7 7 1014.9 0 34.9 36.9 68.2 180.1 193.4 670.6
08/05 03:00 19.4 96 16.02 18.7 9 11 1015 0 35.1 37.0 68.6 181.2 194.7 675.2
08/05 02:50 19.3 96 15.92 18.6 9 9 1014.9 0 34.9 36.9 68.2 180.1 193.4 670.6
08/05 02:40 19.2 96 15.83 18.5 9 11 1014.9 0 34.7 36.8 67.9 179.2 192.2 666.7
08/05 02:30 19.2 96 15.83 18.5 9 11 1015 0 34.7 36.8 67.9 179.3 192.3 666.7
08/05 02:20 19.2 96 15.83 18.5 9 9 1014.9 0 34.7 36.8 67.9 179.2 192.2 666.7
08/05 02:10 19 96 15.64 18.3 9 9 1015 0 34.3 36.5 67.1 177.3 189.8 658.3
08/05 02:00 19.2 96 15.83 18.5 9 11 1015 0 34.7 36.8 67.9 179.3 192.3 666.7
08/05 01:50 19.1 96 15.74 18.4 9 11 1015 0 34.5 36.6 67.5 178.4 191.1 662.8
08/05 01:40 19.2 96 15.83 18.5 9 9 1014.9 0 34.7 36.8 67.9 179.2 192.2 666.7
08/05 01:30 19.2 96 15.83 18.5 9 13 1015.1 0 34.7 36.8 67.9 179.3 192.3 666.8
08/05 01:20 19.3 96 15.92 18.6 11 13 1015 0 34.9 36.9 68.2 180.2 193.4 670.7
08/05 01:10 19.3 96 15.92 18.6 11 13 1015 0 34.9 36.9 68.2 180.2 193.4 670.7
08/05 01:00 19 96 15.64 18.3 9 11 1015.3 0 34.3 36.5 67.2 177.4 189.9 658.4
08/05 00:50 19 96 15.64 18.3 7 9 1015.3 0 34.3 36.5 67.2 177.4 189.9 658.4
08/05 00:40 19 96 15.64 18.3 9 9 1015.3 0 34.3 36.5 67.2 177.4 189.9 658.4
08/05 00:30 19.1 96 15.74 18.4 7 9 1015.4 0 34.5 36.6 67.5 178.4 191.2 663.0
08/05 00:20 19.2 96 15.83 18.5 7 7 1015.4 0 34.7 36.8 67.9 179.3 192.3 666.9
08/05 00:10 19.2 96 15.83 18.5 6 7 1015.5 0 34.7 36.8 67.9 179.3 192.3 667.0
08/05 00:00 19.4 96 16.02 18.7 9 11 1015.6 0 35.1 37.1 68.6 181.3 194.8 675.5
07/05 23:50 19.5 96 16.11 18.8 11 13 1015.5 0 35.3 37.2 68.9 182.1 195.9 679.4
07/05 23:40 19.6 96 16.2 18.9 11 13 1015.6 0 35.5 37.3 69.3 183.1 197.0 683.4
07/05 23:30 19.7 96 16.3 19 13 13 1015.7 0 35.7 37.5 69.7 184.1 198.3 687.9
07/05 23:20 19.9 95 16.32 19.1 13 15 1015.7 0 35.7 37.4 69.6 183.9 198.1 687.2
07/05 23:10 20 95 16.42 19.2 13 13 1015.7 0 35.9 37.6 70.0 184.9 199.4 691.7
07/05 23:00 19.8 95 16.23 19 9 11 1015.9 0 35.5 37.3 69.3 183.0 197.0 683.3
07/05 22:50 20.1 95 16.51 19.3 9 11 1015.9 0 36.1 37.7 70.3 185.8 200.5 695.7
07/05 22:40 20 95 16.42 19.2 9 11 1015.9 0 35.9 37.6 70.0 184.9 199.4 691.8
07/05 22:30 20 95 16.42 19.2 7 9 1016 0 35.9 37.6 70.0 184.9 199.4 691.8
07/05 22:20 20.1 95 16.51 19.3 7 9 1015.8 0 36.1 37.7 70.3 185.8 200.5 695.7
07/05 22:10 20.2 95 16.61 19.4 9 11 1015.8 0 36.3 37.8 70.7 186.8 201.8 700.2
07/05 22:00 20.3 95 16.71 19.5 11 13 1016 0 36.5 38.0 71.1 187.9 203.1 704.8
07/05 21:50 20.4 95 16.8 19.6 9 11 1016 0 36.7 38.1 71.4 188.8 204.3 708.7
07/05 21:40 20.5 95 16.9 19.7 11 11 1016 0 36.9 38.3 71.8 189.8 205.6 713.2
07/05 21:30 20.5 95 16.9 19.7 11 13 1016.2 0 36.9 38.3 71.8 189.8 205.6 713.3
07/05 21:20 20.5 95 16.9 19.7 11 13 1016.2 0 36.9 38.3 71.8 189.8 205.6 713.3
07/05 21:10 20.5 95 16.9 19.7 11 11 1016.2 0 36.9 38.3 71.8 189.8 205.6 713.3
07/05 21:00 20.5 94 16.72 19.5 9 11 1016.3 0 36.5 37.9 71.0 187.5 202.8 703.6
07/05 20:50 20.5 94 16.72 19.5 9 9 1016.2 0 36.5 37.9 71.0 187.5 202.8 703.5
07/05 20:40 20.5 93 16.55 19.3 6 7 1016.3 0 36.2 37.6 70.2 185.4 200.1 694.4
07/05 20:30 20.5 93 16.55 19.3 6 7 1016.4 0 36.2 37.6 70.2 185.4 200.2 694.5
07/05 20:20 20.6 92 16.46 19.3 7 7 1016.2 0 36.0 37.4 69.6 184.0 198.5 688.6
07/05 20:10 21.1 93 17.13 19.9 0 0 1016.2 0 37.3 38.4 72.3 191.2 207.5 720.1

Last Refresh: 08-May-2026 12:09:33

Bureau of Meteorology